createdAt,value
2018-09-14T00:00:19.438Z,101898.25
2018-09-14T00:02:50.073Z,101900.70
2018-09-14T00:05:22.012Z,101893.94
2018-09-14T00:07:53.025Z,101890.25
2018-09-14T00:10:24.919Z,101891.93
2018-09-14T00:12:54.799Z,101888.10
2018-09-14T00:15:24.800Z,101894.84
2018-09-14T00:17:55.097Z,101886.92
2018-09-14T00:20:25.513Z,101886.64
2018-09-14T00:22:55.541Z,101885.45
2018-09-14T00:25:25.770Z,101886.28
2018-09-14T00:27:56.868Z,101886.45
2018-09-14T00:30:29.771Z,101882.08
2018-09-14T00:33:02.852Z,101882.34
2018-09-14T00:35:32.991Z,101880.91
2018-09-14T00:38:02.998Z,101880.08
2018-09-14T00:40:35.082Z,101883.33
2018-09-14T00:43:06.082Z,101877.14
2018-09-14T00:45:36.225Z,101883.00
2018-09-14T00:48:06.803Z,101882.17
2018-09-14T00:50:38.745Z,101886.73
2018-09-14T00:53:09.048Z,101880.23
2018-09-14T00:55:39.588Z,101877.77
2018-09-14T00:58:10.180Z,101877.41
2018-09-14T01:00:40.637Z,101878.44
2018-09-14T01:03:14.133Z,101873.48
2018-09-14T01:05:44.723Z,101877.39
2018-09-14T01:08:14.756Z,101879.48
2018-09-14T01:10:45.689Z,101876.41
2018-09-14T01:13:17.285Z,101876.47
2018-09-14T01:15:47.363Z,101880.05
2018-09-14T01:18:17.541Z,101875.40
2018-09-14T01:20:47.855Z,101878.22
2018-09-14T01:23:17.888Z,101878.55
2018-09-14T01:25:49.540Z,101880.95
2018-09-14T01:28:22.046Z,101877.41
2018-09-14T01:30:53.140Z,101882.02
2018-09-14T01:33:25.316Z,101879.78
2018-09-14T01:36:00.090Z,101879.94
2018-09-14T01:38:31.807Z,101881.99
2018-09-14T01:41:02.313Z,101880.23
2018-09-14T01:43:32.403Z,101877.16
2018-09-14T01:46:05.278Z,101875.55
2018-09-14T01:48:35.893Z,101881.81
2018-09-14T01:51:06.408Z,101866.94
2018-09-14T01:53:37.674Z,101875.90
2018-09-14T01:56:07.823Z,101867.63
2018-09-14T01:58:37.848Z,101869.66
2018-09-14T02:01:08.138Z,101866.83
2018-09-14T02:03:39.474Z,101863.59
2018-09-14T02:06:12.264Z,101870.02
2018-09-14T02:08:42.942Z,101862.47
2018-09-14T02:11:13.021Z,101860.64
2018-09-14T02:13:44.977Z,101853.78
2018-09-14T02:16:16.013Z,101854.22
2018-09-14T02:18:46.244Z,101855.33
2018-09-14T02:21:17.797Z,101845.92
2018-09-14T02:23:50.171Z,101840.73
2018-09-14T02:26:20.586Z,101846.08
2018-09-14T02:28:51.055Z,101849.21
2018-09-14T02:31:22.704Z,101840.84
2018-09-14T02:33:52.582Z,101841.15
2018-09-14T02:36:22.660Z,101842.02
2018-09-14T02:38:54.119Z,101843.95
2018-09-14T02:41:24.705Z,101838.42
2018-09-14T02:43:57.161Z,101833.34
2018-09-14T02:46:30.045Z,101833.61
2018-09-14T02:48:59.914Z,101829.77
2018-09-14T02:51:29.768Z,101825.91
2018-09-14T02:53:59.479Z,101830.27
2018-09-14T02:56:30.709Z,101826.66
2018-09-14T02:59:00.836Z,101823.95
2018-09-14T03:01:30.773Z,101815.43
2018-09-14T03:04:01.218Z,101811.75
2018-09-14T03:06:33.658Z,101816.69
2018-09-14T03:09:05.225Z,101813.09
2018-09-14T03:11:37.606Z,101823.76
2018-09-14T03:14:10.286Z,101822.16
2018-09-14T03:16:42.696Z,101822.06
2018-09-14T03:19:12.920Z,101820.72
2018-09-14T03:21:44.137Z,101830.34
2018-09-14T03:24:14.216Z,101827.44
2018-09-14T03:26:44.186Z,101823.55
2018-09-14T03:29:15.729Z,101823.45
2018-09-14T03:31:45.696Z,101828.64
2018-09-14T03:34:15.640Z,101824.61
2018-09-14T03:36:46.062Z,101824.20
2018-09-14T03:39:15.982Z,101822.55
2018-09-14T03:41:46.162Z,101823.03
2018-09-14T03:44:16.285Z,101829.41
2018-09-14T03:46:46.205Z,101827.31
2018-09-14T03:49:16.729Z,101825.78
2018-09-14T03:51:48.706Z,101830.75
2018-09-14T03:54:21.262Z,101829.45
2018-09-14T03:56:54.261Z,101825.61
2018-09-14T03:59:24.275Z,101829.88
2018-09-14T04:01:54.841Z,101830.36
2018-09-14T04:04:27.233Z,101836.77
2018-09-14T04:06:57.331Z,101831.49
2018-09-14T04:09:27.415Z,101835.52
2018-09-14T04:11:57.728Z,101833.16
2018-09-14T04:14:27.978Z,101831.36
2018-09-14T04:17:01.653Z,101835.03
2018-09-14T04:19:32.084Z,101833.69
2018-09-14T04:22:02.637Z,101828.67
2018-09-14T04:24:32.572Z,101831.10
2018-09-14T04:27:02.692Z,101828.44
2018-09-14T04:29:32.868Z,101826.83
2018-09-14T04:32:03.805Z,101835.33
2018-09-14T04:34:33.822Z,101831.89
2018-09-14T04:37:04.214Z,101828.99
2018-09-14T04:39:34.101Z,101835.77
2018-09-14T04:42:04.195Z,101827.09
2018-09-14T04:44:35.215Z,101830.81
2018-09-14T04:47:05.229Z,101826.89
2018-09-14T04:49:37.689Z,101824.73
2018-09-14T04:52:08.953Z,101829.20
2018-09-14T04:54:39.015Z,101823.03
2018-09-14T04:57:10.389Z,101828.88
2018-09-14T04:59:42.252Z,101832.45
2018-09-14T05:02:12.617Z,101828.88
2018-09-14T05:04:42.795Z,101841.61
2018-09-14T05:07:13.174Z,101834.61
2018-09-14T05:09:43.625Z,101836.31
2018-09-14T05:12:17.009Z,101840.30
2018-09-14T05:14:51.553Z,101836.80
2018-09-14T05:17:24.515Z,101838.37
2018-09-14T05:19:54.704Z,101833.57
2018-09-14T05:22:26.664Z,101836.00
2018-09-14T05:24:57.024Z,101836.74
2018-09-14T05:27:29.049Z,101839.14
2018-09-14T05:29:59.806Z,101830.79
2018-09-14T05:32:30.027Z,101839.14
2018-09-14T05:35:03.021Z,101841.42
2018-09-14T05:37:33.173Z,101833.77
2018-09-14T05:40:03.951Z,101840.94
2018-09-14T05:42:34.108Z,101836.45
2018-09-14T05:45:04.831Z,101840.84
2018-09-14T05:47:35.241Z,101840.36
2018-09-14T05:50:05.474Z,101832.52
2018-09-14T05:52:35.774Z,101836.31
2018-09-14T05:55:05.894Z,101833.25
2018-09-14T05:57:36.344Z,101833.96
2018-09-14T06:00:06.648Z,101835.97
2018-09-14T06:02:36.712Z,101835.17
2018-09-14T06:05:07.391Z,101847.02
2018-09-14T06:07:37.548Z,101839.87
2018-09-14T06:10:09.089Z,101849.19
2018-09-14T06:12:39.099Z,101845.58
2018-09-14T06:15:10.891Z,101846.92
2018-09-14T06:17:41.738Z,101852.09
2018-09-14T06:20:11.753Z,101850.39
2018-09-14T06:22:44.847Z,101860.09
2018-09-14T06:25:15.045Z,101861.60
2018-09-14T06:27:48.752Z,101853.23
2018-09-14T06:30:20.129Z,101862.06
2018-09-14T06:32:51.725Z,101862.22
2018-09-14T06:35:21.739Z,101868.66
2018-09-14T06:37:52.669Z,101868.02
2018-09-14T06:40:22.900Z,101865.73
2018-09-14T06:42:55.473Z,101862.54
2018-09-14T06:45:26.462Z,101860.56
2018-09-14T06:47:57.076Z,101857.53
2018-09-14T06:50:28.570Z,101866.80
2018-09-14T06:53:00.576Z,101862.94
2018-09-14T06:55:31.178Z,101860.51
2018-09-14T06:58:01.206Z,101858.83
2018-09-14T07:00:31.411Z,101855.94
2018-09-14T07:03:02.479Z,101853.95
2018-09-14T07:05:33.920Z,101848.14
2018-09-14T07:08:04.000Z,101850.28
2018-09-14T07:10:34.246Z,101854.67
2018-09-14T07:13:06.321Z,101851.56
2018-09-14T07:15:37.959Z,101850.80
2018-09-14T07:18:08.421Z,101859.95
2018-09-14T07:20:38.582Z,101861.81
2018-09-14T07:23:08.758Z,101858.56
2018-09-14T07:25:38.871Z,101854.56
2018-09-14T07:28:09.870Z,101860.57
2018-09-14T07:30:40.139Z,101857.34
2018-09-14T07:33:10.375Z,101855.05
2018-09-14T07:37:29.213Z,101858.36
2018-09-14T07:40:00.070Z,101863.39
2018-09-14T07:42:30.960Z,101859.77
2018-09-14T07:45:00.779Z,101861.79
2018-09-14T07:47:32.002Z,101861.72
2018-09-14T07:50:05.456Z,101861.84
2018-09-14T07:52:35.483Z,101856.44
2018-09-14T07:55:06.389Z,101849.12
2018-09-14T07:57:36.613Z,101852.52
2018-09-14T08:00:07.782Z,101843.84
2018-09-14T08:02:38.370Z,101847.50
2018-09-14T08:05:08.488Z,101840.69
2018-09-14T08:07:39.548Z,101841.23
2018-09-14T08:10:10.115Z,101846.77
2018-09-14T08:12:40.784Z,101841.91
2018-09-14T08:15:10.974Z,101841.53
2018-09-14T08:17:40.990Z,101838.09
2018-09-14T08:20:11.273Z,101849.53
2018-09-14T08:22:42.097Z,101840.27
2018-09-14T08:25:12.408Z,101855.81
2018-09-14T08:27:42.420Z,101856.23
2018-09-14T08:30:13.219Z,101851.32
2018-09-14T08:32:43.827Z,101857.56
2018-09-14T08:35:13.727Z,101851.17
2018-09-14T08:37:43.931Z,101850.59
2018-09-14T08:40:14.263Z,101853.30
2018-09-14T08:42:44.247Z,101847.20
2018-09-14T08:45:14.810Z,101856.27
2018-09-14T08:47:44.730Z,101854.61
2018-09-14T08:50:15.449Z,101853.16
2018-09-14T08:52:46.301Z,101855.99
2018-09-14T08:55:17.792Z,101856.52
2018-09-14T08:57:48.141Z,101848.98
2018-09-14T09:00:22.486Z,101850.40
2018-09-14T09:02:57.469Z,101852.70
2018-09-14T09:05:27.755Z,101847.13
2018-09-14T09:07:57.762Z,101848.67
2018-09-14T09:10:27.967Z,101851.59
2018-09-14T09:12:58.345Z,101851.05
2018-09-14T09:15:30.257Z,101855.39
2018-09-14T09:18:00.581Z,101854.86
2018-09-14T09:20:31.394Z,101858.27
2018-09-14T09:23:02.359Z,101851.71
2018-09-14T09:25:32.286Z,101852.16
2018-09-14T09:28:02.500Z,101856.11
2018-09-14T09:30:33.152Z,101853.87
2018-09-14T09:33:03.469Z,101857.98
2018-09-14T09:35:33.669Z,101855.12
2018-09-14T09:38:04.807Z,101849.32
2018-09-14T09:40:34.776Z,101845.00
2018-09-14T09:43:04.999Z,101836.72
2018-09-14T09:45:35.095Z,101847.86
2018-09-14T09:48:09.178Z,101845.39
2018-09-14T09:50:39.431Z,101839.33
2018-09-14T09:53:10.245Z,101837.20
2018-09-14T09:55:40.447Z,101834.01
2018-09-14T09:58:11.241Z,101834.41
2018-09-14T10:00:43.977Z,101832.97
2018-09-14T10:03:21.022Z,101839.81
2018-09-14T10:06:01.477Z,101827.69
2018-09-14T10:08:31.523Z,101827.39
2018-09-14T10:11:01.658Z,101831.56
2018-09-14T10:13:32.107Z,101831.80
2018-09-14T10:16:01.956Z,101823.97
2018-09-14T10:18:32.143Z,101827.36
2018-09-14T10:21:02.874Z,101830.37
2018-09-14T10:23:32.883Z,101827.86
2018-09-14T10:26:02.843Z,101826.70
2018-09-14T10:28:32.886Z,101831.45
2018-09-14T10:31:03.341Z,101829.98
2018-09-14T10:33:34.512Z,101829.71
2018-09-14T10:36:05.314Z,101826.79
2018-09-14T10:38:35.587Z,101826.98
2018-09-14T10:41:05.780Z,101832.52
2018-09-14T10:43:35.879Z,101825.16
2018-09-14T10:46:07.100Z,101822.13
2018-09-14T10:48:39.884Z,101812.34
2018-09-14T10:51:10.673Z,101808.74
2018-09-14T10:53:42.076Z,101809.31
2018-09-14T10:56:12.654Z,101811.27
2018-09-14T10:58:45.471Z,101810.59
2018-09-14T11:01:17.355Z,101813.41
2018-09-14T11:03:47.966Z,101804.02
2018-09-14T11:06:18.448Z,101807.98
2018-09-14T11:08:48.660Z,101806.74
2018-09-14T11:11:23.601Z,101804.11
2018-09-14T11:13:54.551Z,101799.59
2018-09-14T11:16:24.773Z,101798.27
2018-09-14T11:18:54.777Z,101796.80
2018-09-14T11:21:24.897Z,101796.91
2018-09-14T11:23:55.109Z,101791.25
2018-09-14T11:26:26.180Z,101797.23
2018-09-14T11:29:00.224Z,101786.45
2018-09-14T11:31:33.982Z,101791.19
2018-09-14T11:34:07.454Z,101800.13
2018-09-14T11:36:38.592Z,101792.55
2018-09-14T11:39:12.670Z,101786.61
2018-09-14T11:41:44.332Z,101788.48
2018-09-14T11:44:18.567Z,101775.89
2018-09-14T11:46:49.453Z,101775.84
2018-09-14T11:49:20.088Z,101779.70
2018-09-14T11:51:50.966Z,101765.69
2018-09-14T11:54:21.264Z,101765.61
2018-09-14T11:56:51.234Z,101781.25
2018-09-14T11:59:21.440Z,101770.41
2018-09-14T12:01:52.136Z,101765.52
2018-09-14T12:04:24.634Z,101765.05
2018-09-14T12:20:20.698Z,101761.89
2018-09-14T12:22:51.237Z,101755.70
2018-09-14T12:25:22.107Z,101756.89
2018-09-14T12:27:53.255Z,101747.27
2018-09-14T12:30:23.393Z,101749.18
2018-09-14T12:32:54.526Z,101745.13
2018-09-14T12:35:24.936Z,101749.97
2018-09-14T12:37:56.414Z,101749.27
2018-09-14T12:43:11.412Z,101731.65
2018-09-14T12:45:42.671Z,101735.08
2018-09-14T12:48:13.153Z,101732.66
2018-09-14T12:50:47.454Z,101745.63
2018-09-14T12:53:19.960Z,101734.55
2018-09-14T12:55:51.495Z,101732.80
2018-09-14T12:58:23.684Z,101722.25
2018-09-14T13:00:57.090Z,101722.42
2018-09-14T13:03:28.185Z,101731.04
2018-09-14T13:06:00.066Z,101733.27
2018-09-14T13:08:30.800Z,101717.02
2018-09-14T13:11:05.098Z,101729.13
2018-09-14T13:13:36.493Z,101731.20
2018-09-14T13:16:10.012Z,101730.81
2018-09-14T13:18:40.479Z,101724.03
2018-09-14T13:21:11.100Z,101732.69
2018-09-14T13:23:41.173Z,101722.75
2018-09-14T13:26:11.501Z,101718.78
2018-09-14T13:28:41.690Z,101720.95
2018-09-14T13:31:11.889Z,101719.06
2018-09-14T13:33:42.188Z,101716.09
2018-09-14T13:36:14.539Z,101717.42
2018-09-14T13:38:45.080Z,101724.89
2018-09-14T13:41:15.040Z,101718.34
2018-09-14T13:43:45.393Z,101714.09
2018-09-14T13:46:15.628Z,101716.28
2018-09-14T13:48:46.572Z,101708.09
2018-09-14T13:51:16.557Z,101709.52
2018-09-14T13:53:47.231Z,101699.84
2018-09-14T13:56:17.668Z,101702.05
2018-09-14T13:58:48.078Z,101706.56
2018-09-14T14:01:18.311Z,101696.94
2018-09-14T14:03:48.401Z,101702.34
2018-09-14T14:06:18.941Z,101693.17
2018-09-14T14:08:48.995Z,101701.11
2018-09-14T14:11:18.916Z,101704.66
2018-09-14T14:13:52.249Z,101700.91
2018-09-14T14:16:22.467Z,101688.72
2018-09-14T14:18:52.582Z,101690.58
2018-09-14T14:21:22.734Z,101693.30
2018-09-14T14:23:54.060Z,101691.50
2018-09-14T14:26:24.462Z,101685.78
2018-09-14T14:28:54.592Z,101687.81
2018-09-14T14:31:24.853Z,101689.06
2018-09-14T14:33:55.401Z,101682.25
2018-09-14T14:36:25.868Z,101685.03
2018-09-14T14:38:56.098Z,101676.84
2018-09-14T14:41:29.823Z,101680.59
2018-09-14T14:44:01.004Z,101674.73
2018-09-14T14:46:31.552Z,101675.88
2018-09-14T14:49:02.205Z,101670.63
2018-09-14T14:51:32.179Z,101661.33
2018-09-14T14:54:04.654Z,101666.76
2018-09-14T14:56:36.571Z,101667.34
2018-09-14T14:59:07.950Z,101660.27
2018-09-14T15:01:37.864Z,101656.58
2018-09-14T15:04:10.034Z,101656.86
2018-09-14T15:06:42.326Z,101653.44
2018-09-14T15:09:12.221Z,101649.48
2018-09-14T15:11:43.160Z,101649.50
2018-09-14T15:14:12.779Z,101650.67
2018-09-14T15:16:42.485Z,101656.51
2018-09-14T15:19:13.089Z,101652.28
2018-09-14T15:21:44.419Z,101647.13
2018-09-14T15:24:18.000Z,101647.63
2018-09-14T15:26:47.834Z,101643.05
2018-09-14T15:29:17.872Z,101644.34
2018-09-14T15:31:49.406Z,101643.48
2018-09-14T15:34:20.447Z,101636.45
2018-09-14T15:36:51.190Z,101642.66
2018-09-14T15:39:21.763Z,101635.58
2018-09-14T15:41:51.549Z,101643.65
2018-09-14T15:44:21.155Z,101638.12
2018-09-14T15:46:51.010Z,101645.86
2018-09-14T15:49:20.756Z,101637.44
2018-09-14T15:51:52.902Z,101640.30
2018-09-14T15:54:23.183Z,101639.44
2018-09-14T15:56:55.458Z,101640.19
2018-09-14T15:59:26.540Z,101634.40
2018-09-14T16:01:57.634Z,101642.44
2018-09-14T16:04:27.686Z,101642.66
2018-09-14T16:06:58.376Z,101639.55
2018-09-14T16:09:28.382Z,101641.19
2018-09-14T16:12:00.864Z,101639.66
2018-09-14T16:14:33.261Z,101636.44
2018-09-14T16:17:04.483Z,101640.15
2018-09-14T16:19:35.681Z,101633.58
2018-09-14T16:22:05.536Z,101637.95
2018-09-14T16:24:35.985Z,101643.66
2018-09-14T16:27:06.843Z,101643.17
2018-09-14T16:29:38.424Z,101644.57
2018-09-14T16:32:08.509Z,101647.89
2018-09-14T16:34:38.522Z,101641.36
2018-09-14T16:37:14.529Z,101652.20
2018-09-14T16:39:44.914Z,101655.09
2018-09-14T16:42:16.839Z,101650.45
2018-09-14T16:44:47.823Z,101648.14
2018-09-14T16:47:22.085Z,101647.34
2018-09-14T16:49:57.593Z,101647.34
2018-09-14T16:52:29.323Z,101654.05
2018-09-14T16:54:59.557Z,101647.08
2018-09-14T16:57:29.548Z,101649.96
2018-09-14T16:59:59.872Z,101654.72
2018-09-14T17:02:32.456Z,101649.20
2018-09-14T17:05:02.568Z,101651.42
2018-09-14T17:07:32.834Z,101644.14
2018-09-14T17:10:02.687Z,101638.26
2018-09-14T17:12:34.253Z,101642.49
2018-09-14T17:15:04.218Z,101641.70
2018-09-14T17:17:35.000Z,101640.91
2018-09-14T17:20:07.330Z,101641.99
2018-09-14T17:22:37.423Z,101645.06
2018-09-14T17:25:07.887Z,101636.94
2018-09-14T17:27:37.873Z,101635.98
2018-09-14T17:30:10.955Z,101631.66
2018-09-14T17:32:40.885Z,101630.40
2018-09-14T17:35:11.080Z,101635.52
2018-09-14T17:37:40.924Z,101633.37
2018-09-14T17:40:12.838Z,101639.34
2018-09-14T17:42:43.214Z,101640.30
2018-09-14T17:45:13.286Z,101637.73
2018-09-14T17:47:44.959Z,101641.89
2018-09-14T17:50:15.512Z,101642.61
2018-09-14T17:52:45.532Z,101638.44
2018-09-14T17:55:15.363Z,101639.03
2018-09-14T17:57:46.669Z,101638.64
2018-09-14T18:00:17.182Z,101633.47
2018-09-14T18:02:50.446Z,101639.12
2018-09-14T18:05:21.081Z,101632.89
2018-09-14T18:07:51.624Z,101634.25
2018-09-14T18:10:21.564Z,101630.74
2018-09-14T18:12:52.135Z,101637.72
2018-09-14T18:15:23.950Z,101636.59
2018-09-14T18:17:55.708Z,101636.23
2018-09-14T18:20:25.807Z,101632.50
2018-09-14T18:22:55.807Z,101628.97
2018-09-14T18:25:25.950Z,101626.77
2018-09-14T18:27:58.392Z,101630.00
2018-09-14T18:30:28.993Z,101629.39
2018-09-14T18:32:59.830Z,101623.12
2018-09-14T18:35:30.252Z,101621.17
2018-09-14T18:38:00.875Z,101625.42
2018-09-14T18:40:32.121Z,101619.91
2018-09-14T18:43:06.174Z,101623.25
2018-09-14T18:45:36.401Z,101622.91
2018-09-14T18:48:08.925Z,101628.97
2018-09-14T18:50:39.081Z,101625.75
2018-09-14T18:53:09.143Z,101623.77
2018-09-14T18:55:39.179Z,101630.88
2018-09-14T18:58:09.271Z,101634.73
2018-09-14T19:00:40.382Z,101637.59
2018-09-14T19:03:12.800Z,101625.70
2018-09-14T19:05:44.969Z,101630.21
2018-09-14T19:08:15.548Z,101629.88
2018-09-14T19:10:46.021Z,101630.02
2018-09-14T19:13:16.260Z,101623.95
2018-09-14T19:18:31.695Z,101624.62
2018-09-14T19:21:01.763Z,101620.14
2018-09-14T19:23:33.176Z,101617.55
2018-09-14T19:26:06.194Z,101619.30
2018-09-14T19:28:40.204Z,101619.21
2018-09-14T19:31:10.601Z,101626.47
2018-09-14T19:33:41.443Z,101626.38
2018-09-14T19:36:12.191Z,101624.20
2018-09-14T19:38:43.253Z,101624.62
2018-09-14T19:41:13.453Z,101624.72
2018-09-14T19:43:45.699Z,101627.80
2018-09-14T19:46:19.241Z,101627.40
2018-09-14T19:48:52.636Z,101625.33
2018-09-14T19:51:22.798Z,101628.62
2018-09-14T19:53:54.662Z,101624.04
2018-09-14T19:56:24.720Z,101618.05
2018-09-14T19:58:56.041Z,101617.90
2018-09-14T20:01:25.961Z,101623.13
2018-09-14T20:04:01.553Z,101618.58
2018-09-14T20:06:31.805Z,101613.22
2018-09-14T20:09:02.037Z,101615.03
2018-09-14T20:11:32.356Z,101606.25
2018-09-14T20:14:02.394Z,101600.38
2018-09-14T20:16:32.501Z,101605.63
2018-09-14T20:19:04.675Z,101604.67
2018-09-14T20:21:34.971Z,101597.73
2018-09-14T20:24:04.993Z,101590.66
2018-09-14T20:26:35.101Z,101585.71
2018-09-14T20:29:05.562Z,101588.05
2018-09-14T20:31:35.835Z,101591.83
2018-09-14T20:34:05.901Z,101590.26
2018-09-14T20:36:36.450Z,101596.56
2018-09-14T20:39:14.286Z,101592.02
2018-09-14T20:41:44.350Z,101594.72
2018-09-14T20:44:14.243Z,101583.72
2018-09-14T20:46:46.756Z,101583.87
2018-09-14T20:49:17.170Z,101579.91
2018-09-14T20:51:47.314Z,101577.63
2018-09-14T20:54:27.854Z,101580.37
2018-09-14T20:56:59.752Z,101575.87
2018-09-14T20:59:29.789Z,101584.75
2018-09-14T21:02:05.491Z,101579.31
2018-09-14T21:04:39.230Z,101575.08
2018-09-14T21:07:09.877Z,101578.40
2018-09-14T21:09:49.057Z,101575.87
2018-09-14T21:12:21.437Z,101574.53
2018-09-14T21:14:51.640Z,101567.48
2018-09-14T21:17:22.295Z,101563.80
2018-09-14T21:19:53.102Z,101565.70
2018-09-14T21:22:23.433Z,101557.93
2018-09-14T21:24:57.657Z,101563.36
2018-09-14T21:27:28.250Z,101564.62
2018-09-14T21:29:58.177Z,101569.20
2018-09-14T21:32:28.772Z,101565.84
2018-09-14T21:35:00.648Z,101573.46
2018-09-14T21:37:30.681Z,101570.25
2018-09-14T21:40:01.344Z,101567.29
2018-09-14T21:42:32.137Z,101572.20
2018-09-14T21:45:02.462Z,101572.19
2018-09-14T21:47:34.408Z,101581.18
2018-09-14T21:50:04.535Z,101574.59
2018-09-14T21:52:37.110Z,101572.47
2018-09-14T21:55:07.216Z,101574.55
2018-09-14T21:57:41.338Z,101572.97
2018-09-14T22:00:18.780Z,101577.08
2018-09-14T22:02:49.268Z,101576.30
2018-09-14T22:05:19.133Z,101574.64
2018-09-14T22:07:50.618Z,101574.00
2018-09-14T22:10:21.910Z,101571.36
2018-09-14T22:12:52.226Z,101566.84
2018-09-14T22:15:23.349Z,101556.34
2018-09-14T22:17:54.375Z,101555.55
2018-09-14T22:20:26.247Z,101559.91
2018-09-14T22:22:56.460Z,101561.84
2018-09-14T22:25:28.832Z,101558.03
2018-09-14T22:28:02.045Z,101557.19
2018-09-14T22:30:34.495Z,101553.38
2018-09-14T22:33:05.876Z,101552.38
2018-09-14T22:35:39.168Z,101546.36
2018-09-14T22:38:09.755Z,101542.61
2018-09-14T22:40:43.931Z,101538.70
2018-09-14T22:43:14.097Z,101540.55
2018-09-14T22:45:44.208Z,101541.09
2018-09-14T22:49:44.495Z,101532.63
2018-09-14T22:52:15.066Z,101534.89
2018-09-14T22:54:48.298Z,101539.17
2018-09-14T22:57:18.535Z,101540.73
2018-09-14T22:59:54.659Z,101542.99
2018-09-14T23:02:24.672Z,101549.03
2018-09-14T23:04:54.791Z,101552.95
2018-09-14T23:07:24.816Z,101552.28
2018-09-14T23:09:54.754Z,101544.84
2018-09-14T23:12:27.196Z,101542.02
2018-09-14T23:14:57.522Z,101545.97
2018-09-14T23:17:27.741Z,101539.05
2018-09-14T23:19:58.709Z,101544.99
2018-09-14T23:22:29.826Z,101545.44
2018-09-14T23:25:00.531Z,101538.33
2018-09-14T23:27:30.474Z,101530.50
2018-09-14T23:30:00.581Z,101535.49
2018-09-14T23:32:30.802Z,101538.92
2018-09-14T23:35:03.394Z,101531.80
2018-09-14T23:37:33.634Z,101533.02
2018-09-14T23:40:05.466Z,101536.13
2018-09-14T23:42:36.141Z,101534.23
2018-09-14T23:45:06.844Z,101527.74
2018-09-14T23:47:36.851Z,101539.95
2018-09-14T23:50:08.323Z,101532.83
2018-09-14T23:52:38.367Z,101535.94
2018-09-14T23:55:10.627Z,101541.97
2018-09-14T23:57:40.595Z,101546.48
